createdAt,value
2019-03-03T00:01:12.405Z,6.42
2019-03-03T00:02:12.339Z,6.36
2019-03-03T00:04:05.160Z,6.46
2019-03-03T00:05:05.332Z,6.51
2019-03-03T00:06:57.875Z,6.50
2019-03-03T00:07:57.775Z,6.53
2019-03-03T00:09:50.582Z,6.58
2019-03-03T00:10:50.517Z,6.60
2019-03-03T00:12:43.281Z,6.57
2019-03-03T00:13:43.188Z,6.63
2019-03-03T00:15:35.998Z,6.58
2019-03-03T00:16:35.906Z,6.65
2019-03-03T00:18:29.321Z,6.65
2019-03-03T00:19:28.815Z,6.61
2019-03-03T00:21:21.723Z,6.68
2019-03-03T00:22:21.654Z,6.69
2019-03-03T00:24:14.584Z,6.75
2019-03-03T00:25:14.449Z,6.72
2019-03-03T00:27:07.378Z,6.71
2019-03-03T00:28:07.177Z,6.75
2019-03-03T00:29:59.952Z,6.78
2019-03-03T00:30:59.863Z,6.72
2019-03-03T00:32:53.014Z,6.63
2019-03-03T00:33:52.909Z,6.71
2019-03-03T00:35:45.547Z,6.69
2019-03-03T00:36:45.466Z,6.78
2019-03-03T00:38:38.247Z,6.78
2019-03-03T00:39:38.169Z,6.68
2019-03-03T00:41:30.960Z,6.71
2019-03-03T00:42:30.881Z,6.68
2019-03-03T00:44:23.941Z,6.76
2019-03-03T00:45:23.796Z,6.61
2019-03-03T00:47:16.553Z,6.75
2019-03-03T00:48:16.582Z,6.72
2019-03-03T00:50:09.354Z,6.75
2019-03-03T00:51:09.204Z,6.79
2019-03-03T00:53:02.030Z,6.71
2019-03-03T00:54:01.926Z,6.76
2019-03-03T00:55:54.734Z,6.75
2019-03-03T00:56:54.665Z,6.64
2019-03-03T00:58:47.478Z,6.63
2019-03-03T00:59:47.408Z,6.69
2019-03-03T01:01:40.184Z,6.64
2019-03-03T01:02:40.104Z,6.64
2019-03-03T01:04:32.901Z,6.69
2019-03-03T01:05:32.860Z,6.79
2019-03-03T01:07:25.783Z,6.75
2019-03-03T01:08:25.522Z,6.76
2019-03-03T01:10:18.342Z,6.76
2019-03-03T01:11:18.264Z,6.79
2019-03-03T01:13:11.063Z,6.82
2019-03-03T01:14:10.994Z,6.78
2019-03-03T01:16:03.768Z,6.79
2019-03-03T01:17:03.685Z,6.78
2019-03-03T01:18:56.485Z,6.78
2019-03-03T01:19:56.382Z,6.76
2019-03-03T01:21:49.233Z,6.78
2019-03-03T01:22:49.098Z,6.81
2019-03-03T01:24:41.894Z,6.79
2019-03-03T01:25:41.803Z,6.78
2019-03-03T01:27:34.543Z,6.78
2019-03-03T01:28:34.534Z,6.72
2019-03-03T01:30:27.305Z,6.76
2019-03-03T01:31:27.244Z,6.64
2019-03-03T01:33:20.043Z,6.73
2019-03-03T01:34:19.966Z,6.65
2019-03-03T01:36:13.282Z,6.68
2019-03-03T01:37:12.685Z,6.58
2019-03-03T01:39:05.518Z,6.63
2019-03-03T01:40:05.437Z,6.60
2019-03-03T01:41:58.261Z,6.58
2019-03-03T01:42:58.128Z,6.60
2019-03-03T01:44:50.998Z,6.58
2019-03-03T01:45:50.874Z,6.63
2019-03-03T01:47:43.694Z,6.65
2019-03-03T01:48:43.588Z,6.71
2019-03-03T01:50:36.519Z,6.65
2019-03-03T01:51:36.460Z,6.68
2019-03-03T01:53:29.256Z,6.73
2019-03-03T01:54:29.186Z,6.72
2019-03-03T01:56:47.449Z,6.68
2019-03-03T01:57:47.246Z,6.75
2019-03-03T01:59:40.045Z,6.73
2019-03-03T02:00:39.977Z,6.63
2019-03-03T02:02:32.832Z,6.76
2019-03-03T02:03:32.798Z,6.76
2019-03-03T02:05:25.479Z,6.81
2019-03-03T02:06:25.413Z,6.76
2019-03-03T02:08:18.234Z,6.83
2019-03-03T02:09:18.184Z,6.78
2019-03-03T02:11:11.041Z,6.78
2019-03-03T02:12:10.954Z,6.78
2019-03-03T02:14:03.796Z,6.78
2019-03-03T02:15:03.694Z,6.75
2019-03-03T02:16:56.488Z,6.78
2019-03-03T02:17:56.402Z,6.79
2019-03-03T02:19:49.233Z,6.81
2019-03-03T02:20:49.113Z,6.81
2019-03-03T02:22:41.890Z,6.79
2019-03-03T02:23:41.939Z,6.78
2019-03-03T02:25:34.570Z,6.83
2019-03-03T02:26:34.514Z,6.91
2019-03-03T02:28:27.269Z,6.83
2019-03-03T02:29:27.172Z,6.90
2019-03-03T02:31:20.068Z,6.89
2019-03-03T02:32:19.907Z,6.91
2019-03-03T02:34:12.677Z,6.89
2019-03-03T02:35:12.613Z,6.99
2019-03-03T02:37:05.562Z,6.96
2019-03-03T02:38:05.407Z,7.04
2019-03-03T02:39:58.176Z,6.99
2019-03-03T02:40:58.110Z,7.01
2019-03-03T02:42:51.000Z,6.99
2019-03-03T02:43:50.854Z,6.93
2019-03-03T02:45:43.650Z,7.00
2019-03-03T02:46:43.641Z,6.90
2019-03-03T02:48:36.439Z,6.97
2019-03-03T02:49:36.362Z,7.00
2019-03-03T02:51:29.281Z,7.04
2019-03-03T02:52:29.152Z,7.00
2019-03-03T02:54:21.931Z,6.97
2019-03-03T02:55:21.825Z,7.01
2019-03-03T02:57:14.718Z,7.08
2019-03-03T02:58:14.533Z,7.07
2019-03-03T03:00:07.563Z,6.97
2019-03-03T03:01:07.323Z,7.08
2019-03-03T03:03:00.178Z,7.12
2019-03-03T03:04:00.086Z,7.12
2019-03-03T03:05:52.815Z,7.04
2019-03-03T03:06:52.903Z,7.07
2019-03-03T03:08:46.249Z,7.12
2019-03-03T03:09:45.755Z,7.16
2019-03-03T03:11:38.652Z,7.12
2019-03-03T03:12:38.488Z,7.14
2019-03-03T03:14:31.240Z,7.11
2019-03-03T03:15:31.170Z,7.19
2019-03-03T03:17:24.059Z,7.09
2019-03-03T03:18:23.980Z,7.18
2019-03-03T03:20:16.782Z,7.16
2019-03-03T03:21:16.703Z,7.14
2019-03-03T03:23:09.521Z,7.15
2019-03-03T03:24:09.426Z,7.16
2019-03-03T03:26:02.215Z,7.12
2019-03-03T03:27:02.137Z,7.16
2019-03-03T03:28:54.925Z,7.21
2019-03-03T03:29:54.987Z,7.24
2019-03-03T03:31:47.822Z,7.21
2019-03-03T03:32:47.626Z,7.14
2019-03-03T03:34:40.473Z,7.19
2019-03-03T03:35:40.379Z,7.21
2019-03-03T03:37:33.161Z,7.26
2019-03-03T03:38:33.119Z,7.15
2019-03-03T03:40:26.082Z,7.16
2019-03-03T03:41:25.889Z,7.21
2019-03-03T03:43:18.615Z,7.23
2019-03-03T03:44:18.622Z,7.18
2019-03-03T03:46:11.312Z,7.29
2019-03-03T03:47:11.241Z,7.21
2019-03-03T03:49:04.041Z,7.23
2019-03-03T03:50:03.956Z,7.26
2019-03-03T03:51:56.757Z,7.32
2019-03-03T03:52:56.904Z,7.24
2019-03-03T03:54:49.627Z,7.29
2019-03-03T03:55:49.382Z,7.29
2019-03-03T03:57:42.388Z,7.32
2019-03-03T03:58:42.276Z,7.21
2019-03-03T04:00:35.061Z,7.16
2019-03-03T04:01:35.204Z,7.24
2019-03-03T04:03:27.808Z,7.23
2019-03-03T04:04:27.771Z,7.16
2019-03-03T04:06:20.504Z,7.26
2019-03-03T04:07:20.437Z,7.23
2019-03-03T04:09:13.446Z,7.15
2019-03-03T04:10:13.297Z,7.23
2019-03-03T04:12:06.143Z,7.21
2019-03-03T04:13:06.147Z,7.23
2019-03-03T04:14:59.022Z,7.16
2019-03-03T04:15:58.989Z,7.18
2019-03-03T04:17:51.636Z,7.19
2019-03-03T04:18:51.614Z,7.16
2019-03-03T04:20:44.446Z,7.18
2019-03-03T04:21:44.344Z,7.27
2019-03-03T04:23:37.107Z,7.27
2019-03-03T04:24:37.027Z,7.27
2019-03-03T04:26:29.882Z,7.32
2019-03-03T04:27:29.887Z,7.32
2019-03-03T04:29:22.775Z,7.34
2019-03-03T04:30:22.548Z,7.33
2019-03-03T04:32:15.376Z,7.44
2019-03-03T04:33:15.309Z,7.32
2019-03-03T04:35:08.136Z,7.39
2019-03-03T04:36:08.015Z,7.48
2019-03-03T04:38:00.869Z,7.39
2019-03-03T04:39:00.872Z,7.51
2019-03-03T04:40:53.557Z,7.55
2019-03-03T04:41:53.485Z,7.57
2019-03-03T04:43:46.390Z,7.52
2019-03-03T04:44:46.203Z,7.55
2019-03-03T04:46:39.151Z,7.69
2019-03-03T04:47:39.083Z,7.73
2019-03-03T04:49:32.107Z,7.77
2019-03-03T04:50:32.080Z,7.81
2019-03-03T04:52:24.616Z,7.94
2019-03-03T04:53:24.569Z,7.94
2019-03-03T04:55:16.471Z,7.85
2019-03-03T04:56:16.410Z,8.00
2019-03-03T04:58:09.472Z,8.02
2019-03-03T04:59:09.193Z,8.06
2019-03-03T05:01:01.920Z,8.00
2019-03-03T05:02:01.836Z,7.95
2019-03-03T05:03:54.642Z,8.04
2019-03-03T05:04:54.577Z,7.95
2019-03-03T05:06:47.337Z,8.00
2019-03-03T05:07:47.257Z,8.06
2019-03-03T05:09:40.217Z,8.10
2019-03-03T05:10:40.021Z,8.03
2019-03-03T05:12:32.829Z,8.06
2019-03-03T05:13:32.775Z,8.06
2019-03-03T05:15:25.523Z,8.10
2019-03-03T05:16:25.450Z,8.07
2019-03-03T05:18:18.242Z,8.21
2019-03-03T05:19:18.159Z,8.17
2019-03-03T05:21:10.981Z,8.20
2019-03-03T05:22:10.974Z,8.13
2019-03-03T05:24:03.694Z,8.18
2019-03-03T05:25:03.633Z,8.22
2019-03-03T05:26:56.389Z,8.22
2019-03-03T05:27:56.307Z,8.22
2019-03-03T05:29:49.125Z,8.36
2019-03-03T05:30:49.045Z,8.31
2019-03-03T05:32:41.889Z,8.29
2019-03-03T05:33:41.809Z,8.36
2019-03-03T05:35:34.605Z,8.40
2019-03-03T05:36:34.503Z,8.39
2019-03-03T05:38:27.900Z,8.43
2019-03-03T05:39:27.873Z,8.46
2019-03-03T05:41:20.659Z,8.45
2019-03-03T05:42:20.545Z,8.46
2019-03-03T05:44:13.322Z,8.52
2019-03-03T05:45:13.443Z,8.49
2019-03-03T05:47:06.389Z,8.49
2019-03-03T05:48:06.567Z,8.67
2019-03-03T05:49:59.126Z,8.54
2019-03-03T05:50:59.013Z,8.55
2019-03-03T05:52:52.031Z,8.55
2019-03-03T05:53:51.854Z,8.55
2019-03-03T05:55:44.706Z,8.55
2019-03-03T05:56:44.611Z,8.60
2019-03-03T05:58:37.389Z,8.61
2019-03-03T05:59:37.337Z,8.64
2019-03-03T06:01:30.199Z,8.68
2019-03-03T06:02:30.026Z,8.70
2019-03-03T06:04:22.840Z,8.54
2019-03-03T06:05:22.734Z,8.64
2019-03-03T06:07:15.588Z,8.68
2019-03-03T06:08:15.441Z,8.60
2019-03-03T06:10:08.416Z,8.60
2019-03-03T06:11:08.339Z,8.70
2019-03-03T06:13:01.120Z,8.73
2019-03-03T06:14:01.083Z,8.71
2019-03-03T06:15:53.834Z,8.82
2019-03-03T06:16:53.775Z,8.78
2019-03-03T06:18:46.689Z,8.78
2019-03-03T06:19:46.484Z,8.83
2019-03-03T06:21:39.259Z,8.86
2019-03-03T06:22:39.215Z,8.85
2019-03-03T06:24:32.128Z,8.85
2019-03-03T06:25:31.901Z,8.83
2019-03-03T06:27:24.820Z,8.83
2019-03-03T06:28:24.749Z,8.82
2019-03-03T06:30:17.625Z,8.79
2019-03-03T06:31:17.467Z,8.80
2019-03-03T06:33:10.298Z,8.88
2019-03-03T06:34:10.281Z,8.86
2019-03-03T06:36:03.276Z,8.88
2019-03-03T06:37:03.108Z,8.91
2019-03-03T06:38:56.034Z,8.89
2019-03-03T06:39:56.097Z,8.98
2019-03-03T06:41:48.787Z,8.89
2019-03-03T06:42:48.689Z,8.94
2019-03-03T06:44:41.462Z,8.94
2019-03-03T06:45:41.420Z,8.98
2019-03-03T06:47:34.178Z,9.01
2019-03-03T06:48:34.093Z,9.00
2019-03-03T06:50:26.921Z,9.08
2019-03-03T06:51:26.865Z,8.98
2019-03-03T06:53:19.783Z,9.04
2019-03-03T06:54:19.578Z,9.16
2019-03-03T06:56:12.397Z,9.15
2019-03-03T06:57:12.287Z,9.16
2019-03-03T06:59:05.066Z,9.26
2019-03-03T07:00:04.976Z,9.31
2019-03-03T07:01:58.007Z,9.34
2019-03-03T07:02:57.924Z,9.32
2019-03-03T07:04:50.945Z,9.37
2019-03-03T07:05:50.649Z,9.41
2019-03-03T07:07:43.538Z,9.45
2019-03-03T07:08:43.372Z,9.44
2019-03-03T07:10:36.147Z,9.41
2019-03-03T07:11:36.070Z,9.41
2019-03-03T07:13:28.962Z,9.55
2019-03-03T07:14:28.825Z,9.55
2019-03-03T07:16:21.634Z,9.73
2019-03-03T07:17:21.780Z,9.67
2019-03-03T07:19:13.735Z,9.81
2019-03-03T07:20:13.637Z,9.81
2019-03-03T07:22:06.433Z,9.81
2019-03-03T07:23:06.381Z,9.81
2019-03-03T07:24:59.168Z,9.80
2019-03-03T07:25:59.071Z,9.91
2019-03-03T07:27:52.070Z,9.89
2019-03-03T07:28:51.989Z,9.96
2019-03-03T07:30:44.829Z,10.02
2019-03-03T07:31:44.749Z,9.96
2019-03-03T07:33:37.597Z,10.06
2019-03-03T07:34:37.618Z,10.13
2019-03-03T07:36:30.246Z,10.10
2019-03-03T07:37:30.153Z,10.16
2019-03-03T07:39:23.047Z,10.16
2019-03-03T07:40:22.904Z,10.13
2019-03-03T07:42:15.822Z,10.28
2019-03-03T07:43:15.750Z,10.36
2019-03-03T07:45:08.561Z,10.31
2019-03-03T07:46:08.513Z,10.32
2019-03-03T07:48:01.302Z,10.29
2019-03-03T07:49:01.217Z,10.31
2019-03-03T07:50:54.005Z,10.44
2019-03-03T07:51:53.907Z,10.39
2019-03-03T07:53:46.851Z,10.54
2019-03-03T07:54:46.752Z,10.63
2019-03-03T07:56:39.466Z,10.58
2019-03-03T07:57:39.413Z,10.58
2019-03-03T07:59:32.314Z,10.60
2019-03-03T08:00:32.219Z,10.65
2019-03-03T08:02:25.051Z,10.58
2019-03-03T08:03:24.950Z,10.62
2019-03-03T08:05:18.108Z,10.63
2019-03-03T08:06:18.029Z,10.68
2019-03-03T08:08:11.011Z,10.73
2019-03-03T08:09:11.048Z,10.84
2019-03-03T08:11:03.723Z,10.81
2019-03-03T08:12:03.660Z,10.95
2019-03-03T08:13:56.565Z,10.98
2019-03-03T08:14:56.486Z,11.08
2019-03-03T08:16:49.360Z,11.19
2019-03-03T08:17:49.288Z,11.19
2019-03-03T08:19:42.297Z,11.09
2019-03-03T08:20:42.008Z,11.02
2019-03-03T08:22:33.807Z,11.16
2019-03-03T08:23:34.000Z,11.13
2019-03-03T08:25:25.874Z,11.21
2019-03-03T08:26:25.820Z,11.27
2019-03-03T08:28:18.613Z,11.28
2019-03-03T08:29:18.559Z,11.45
2019-03-03T08:31:11.339Z,11.60
2019-03-03T08:32:11.246Z,11.59
2019-03-03T08:34:04.048Z,11.82
2019-03-03T08:35:03.968Z,11.77
2019-03-03T08:36:56.769Z,11.63
2019-03-03T08:37:56.699Z,11.63
2019-03-03T08:39:49.516Z,11.51
2019-03-03T08:40:49.488Z,11.53
2019-03-03T08:42:42.205Z,11.56
2019-03-03T08:43:42.110Z,11.53
2019-03-03T08:45:34.936Z,11.44
2019-03-03T08:46:34.829Z,11.41
2019-03-03T08:48:27.679Z,11.30
2019-03-03T08:49:27.584Z,11.28
2019-03-03T08:51:20.406Z,11.38
2019-03-03T08:52:20.448Z,11.38
2019-03-03T08:54:13.196Z,11.39
2019-03-03T08:55:13.135Z,11.38
2019-03-03T08:57:05.996Z,11.41
2019-03-03T08:58:05.874Z,11.33
2019-03-03T08:59:58.718Z,11.49
2019-03-03T09:00:58.610Z,11.60
2019-03-03T09:02:51.470Z,11.63
2019-03-03T09:03:51.327Z,11.53
2019-03-03T09:05:44.162Z,11.38
2019-03-03T09:06:44.086Z,11.42
2019-03-03T09:08:36.854Z,11.46
2019-03-03T09:09:36.776Z,11.42
2019-03-03T09:11:29.588Z,11.35
2019-03-03T09:12:29.557Z,11.42
2019-03-03T09:14:22.352Z,11.51
2019-03-03T09:15:22.269Z,11.54
2019-03-03T09:17:15.064Z,11.60
2019-03-03T09:18:14.979Z,11.59
2019-03-03T09:20:07.807Z,11.51
2019-03-03T09:21:07.749Z,11.59
2019-03-03T09:23:00.530Z,11.63
2019-03-03T09:24:00.471Z,11.62
2019-03-03T09:25:53.661Z,11.56
2019-03-03T09:26:53.193Z,11.53
2019-03-03T09:28:45.977Z,11.57
2019-03-03T09:29:45.946Z,11.62
2019-03-03T09:31:37.881Z,11.62
2019-03-03T09:32:38.203Z,11.72
2019-03-03T09:34:30.603Z,11.75
2019-03-03T09:35:30.508Z,11.88
2019-03-03T09:37:23.316Z,11.96
2019-03-03T09:38:23.195Z,11.93
2019-03-03T09:40:16.033Z,11.94
2019-03-03T09:41:16.057Z,11.81
2019-03-03T09:43:08.740Z,11.97
2019-03-03T09:44:10.493Z,12.03
2019-03-03T09:46:01.475Z,12.04
2019-03-03T09:47:01.372Z,12.12
2019-03-03T09:48:54.068Z,11.97
2019-03-03T09:49:53.329Z,12.03
2019-03-03T09:51:46.106Z,11.98
2019-03-03T09:52:46.225Z,12.03
2019-03-03T09:54:38.035Z,11.98
2019-03-03T09:55:37.939Z,12.00
2019-03-03T09:57:30.641Z,11.93
2019-03-03T09:58:30.578Z,11.96
2019-03-03T10:00:23.602Z,11.75
2019-03-03T10:01:23.550Z,11.77
2019-03-03T10:03:16.188Z,11.82
2019-03-03T10:04:16.091Z,11.81
2019-03-03T10:06:09.038Z,12.03
2019-03-03T10:07:08.956Z,11.98
2019-03-03T10:09:01.817Z,12.12
2019-03-03T10:10:01.733Z,12.12
2019-03-03T10:11:54.497Z,12.11
2019-03-03T10:12:54.515Z,12.07
2019-03-03T10:14:47.219Z,12.15
2019-03-03T10:15:47.122Z,12.08
2019-03-03T10:17:39.926Z,12.11
2019-03-03T10:18:39.848Z,12.05
2019-03-03T10:20:32.915Z,12.01
2019-03-03T10:21:32.725Z,12.04
2019-03-03T10:23:25.501Z,11.90
2019-03-03T10:24:25.409Z,11.88
2019-03-03T10:26:18.416Z,11.70
2019-03-03T10:27:18.296Z,11.82
2019-03-03T10:29:11.269Z,11.81
2019-03-03T10:30:11.206Z,11.85
2019-03-03T10:32:04.083Z,11.81
2019-03-03T10:33:03.961Z,11.94
2019-03-03T10:34:55.732Z,11.85
2019-03-03T10:35:55.731Z,11.82
2019-03-03T10:37:48.451Z,11.85
2019-03-03T10:38:48.355Z,11.72
2019-03-03T10:40:41.248Z,11.63
2019-03-03T10:41:41.117Z,11.63
2019-03-03T10:43:34.015Z,11.64
2019-03-03T10:44:33.979Z,11.66
2019-03-03T10:46:26.724Z,11.77
2019-03-03T10:47:26.645Z,11.72
2019-03-03T10:49:19.456Z,11.77
2019-03-03T10:50:19.401Z,11.82
2019-03-03T10:52:12.355Z,11.77
2019-03-03T10:53:12.155Z,11.78
2019-03-03T10:55:04.175Z,11.78
2019-03-03T10:56:04.079Z,11.81
2019-03-03T10:57:57.055Z,11.88
2019-03-03T10:58:56.810Z,11.84
2019-03-03T11:00:49.747Z,12.00
2019-03-03T11:01:49.646Z,11.94
2019-03-03T11:03:42.425Z,12.05
2019-03-03T11:04:42.325Z,12.00
2019-03-03T11:06:35.346Z,12.13
2019-03-03T11:07:35.140Z,12.16
2019-03-03T11:09:28.219Z,12.25
2019-03-03T11:10:27.864Z,12.26
2019-03-03T11:12:20.649Z,12.23
2019-03-03T11:13:20.598Z,12.25
2019-03-03T11:15:18.395Z,12.21
2019-03-03T11:16:13.322Z,12.16
2019-03-03T11:18:06.257Z,12.15
2019-03-03T11:19:06.193Z,12.12
2019-03-03T11:20:59.085Z,12.22
2019-03-03T11:21:59.637Z,12.25
2019-03-03T11:23:51.697Z,12.19
2019-03-03T11:24:51.655Z,12.25
2019-03-03T11:26:44.436Z,12.23
2019-03-03T11:27:44.349Z,12.12
2019-03-03T11:29:37.214Z,12.23
2019-03-03T11:30:39.340Z,12.19
2019-03-03T11:32:30.203Z,12.13
2019-03-03T11:33:30.067Z,12.16
2019-03-03T11:35:22.780Z,12.18
2019-03-03T11:36:22.775Z,12.11
2019-03-03T11:38:15.536Z,12.16
2019-03-03T11:39:15.429Z,12.26
2019-03-03T11:41:08.390Z,12.40
2019-03-03T11:42:08.332Z,12.33
2019-03-03T11:44:01.185Z,12.36
2019-03-03T11:45:01.021Z,12.41
2019-03-03T11:46:53.998Z,12.37
2019-03-03T11:48:03.662Z,12.31
2019-03-03T11:49:46.729Z,12.29
2019-03-03T11:50:46.747Z,12.36
2019-03-03T11:52:39.459Z,12.30
2019-03-03T11:53:39.453Z,12.25
2019-03-03T11:55:32.260Z,12.36
2019-03-03T11:56:32.175Z,12.33
2019-03-03T11:58:25.123Z,12.40
2019-03-03T11:59:24.860Z,12.33
2019-03-03T12:01:17.696Z,12.31
2019-03-03T12:02:17.677Z,12.26
2019-03-03T12:04:10.528Z,12.16
2019-03-03T12:05:10.361Z,12.07
2019-03-03T12:07:03.145Z,12.04
2019-03-03T12:08:03.116Z,11.97
2019-03-03T12:09:55.854Z,11.87
2019-03-03T12:10:55.836Z,11.90
2019-03-03T12:12:48.771Z,11.88
2019-03-03T12:13:48.602Z,11.75
2019-03-03T12:15:41.430Z,11.78
2019-03-03T12:16:41.503Z,11.75
2019-03-03T12:18:34.202Z,11.78
2019-03-03T12:19:34.201Z,11.70
2019-03-03T12:21:26.945Z,11.77
2019-03-03T12:22:26.995Z,11.78
2019-03-03T12:24:19.702Z,11.81
2019-03-03T12:25:19.581Z,11.72
2019-03-03T12:27:12.417Z,11.77
2019-03-03T12:28:12.285Z,11.82
2019-03-03T12:30:05.346Z,11.88
2019-03-03T12:31:05.172Z,12.00
2019-03-03T12:32:57.979Z,12.00
2019-03-03T12:33:57.908Z,12.05
2019-03-03T12:35:50.729Z,12.08
2019-03-03T12:36:50.653Z,12.11
2019-03-03T12:38:43.841Z,12.15
2019-03-03T12:39:43.550Z,12.15
2019-03-03T12:41:36.532Z,12.22
2019-03-03T12:42:36.448Z,12.26
2019-03-03T12:44:29.373Z,12.38
2019-03-03T12:45:29.257Z,12.25
2019-03-03T12:47:22.011Z,12.11
2019-03-03T12:48:22.126Z,12.23
2019-03-03T12:50:15.829Z,12.36
2019-03-03T12:51:15.657Z,12.34
2019-03-03T12:53:08.524Z,12.43
2019-03-03T12:54:08.406Z,12.46
2019-03-03T12:56:01.165Z,12.40
2019-03-03T12:57:01.109Z,12.46
2019-03-03T12:58:53.925Z,12.56
2019-03-03T12:59:53.862Z,12.58
2019-03-03T13:01:46.775Z,12.49
2019-03-03T13:02:46.695Z,12.56
2019-03-03T13:04:40.098Z,12.38
2019-03-03T13:05:39.662Z,12.40
2019-03-03T13:07:32.367Z,12.36
2019-03-03T13:08:32.330Z,12.30
2019-03-03T13:10:24.997Z,12.34
2019-03-03T13:11:24.905Z,12.31
2019-03-03T13:13:17.746Z,12.33
2019-03-03T13:14:17.643Z,12.25
2019-03-03T13:16:10.480Z,12.18
2019-03-03T13:17:10.460Z,12.21
2019-03-03T13:19:03.218Z,12.23
2019-03-03T13:20:03.170Z,12.15
2019-03-03T13:21:56.463Z,12.13
2019-03-03T13:22:55.855Z,12.22
2019-03-03T13:24:49.051Z,12.19
2019-03-03T13:25:48.718Z,12.19
2019-03-03T13:27:41.651Z,12.15
2019-03-03T13:28:41.518Z,12.13
2019-03-03T13:30:34.226Z,12.16
2019-03-03T13:31:34.154Z,12.12
2019-03-03T13:33:27.223Z,12.04
2019-03-03T13:34:27.114Z,12.11
2019-03-03T13:36:19.869Z,12.03
2019-03-03T13:37:19.811Z,12.12
2019-03-03T13:39:12.632Z,12.01
2019-03-03T13:40:12.530Z,12.04
2019-03-03T13:42:05.330Z,12.03
2019-03-03T13:43:05.249Z,12.07
2019-03-03T13:44:58.108Z,12.04
2019-03-03T13:45:58.016Z,12.01
2019-03-03T13:47:51.043Z,12.05
2019-03-03T13:48:51.403Z,12.15
2019-03-03T13:50:43.733Z,12.12
2019-03-03T13:51:43.632Z,12.12
2019-03-03T13:53:36.501Z,12.25
2019-03-03T13:54:36.384Z,12.26
2019-03-03T13:56:29.131Z,12.21
2019-03-03T13:57:29.077Z,12.29
2019-03-03T13:59:21.856Z,12.34
2019-03-03T14:00:21.776Z,12.31
2019-03-03T14:02:14.605Z,12.30
2019-03-03T14:03:14.580Z,12.36
2019-03-03T14:05:07.353Z,12.37
2019-03-03T14:06:07.280Z,12.36
2019-03-03T14:08:00.103Z,12.36
2019-03-03T14:09:00.000Z,12.41
2019-03-03T14:10:54.031Z,12.34
2019-03-03T14:11:52.712Z,12.34
2019-03-03T14:13:45.492Z,12.44
2019-03-03T14:14:45.438Z,12.41
2019-03-03T14:16:38.213Z,12.40
2019-03-03T14:17:38.183Z,12.40
2019-03-03T14:19:30.995Z,12.49
2019-03-03T14:20:31.019Z,12.48
2019-03-03T14:22:23.649Z,12.58
2019-03-03T14:23:23.609Z,12.49
2019-03-03T14:25:16.386Z,12.52
2019-03-03T14:26:16.317Z,12.41
2019-03-03T14:28:09.085Z,12.49
2019-03-03T14:29:09.009Z,12.48
2019-03-03T14:31:01.785Z,12.44
2019-03-03T14:32:01.774Z,12.37
2019-03-03T14:33:54.579Z,12.38
2019-03-03T14:34:54.491Z,12.36
2019-03-03T14:36:47.991Z,12.31
2019-03-03T14:37:47.383Z,12.38
2019-03-03T14:39:40.153Z,12.22
2019-03-03T14:40:40.072Z,12.21
2019-03-03T14:42:32.910Z,12.16
2019-03-03T14:43:32.817Z,12.22
2019-03-03T14:45:25.641Z,12.13
2019-03-03T14:46:25.573Z,12.16
2019-03-03T14:48:18.398Z,12.07
2019-03-03T14:49:18.323Z,12.12
2019-03-03T14:51:11.090Z,12.04
2019-03-03T14:52:11.037Z,12.08
2019-03-03T14:54:04.854Z,12.04
2019-03-03T14:55:03.717Z,11.97
2019-03-03T14:56:56.473Z,11.94
2019-03-03T14:57:56.445Z,11.97
2019-03-03T14:59:49.199Z,11.82
2019-03-03T15:00:49.120Z,11.78
2019-03-03T15:02:42.015Z,11.72
2019-03-03T15:03:41.841Z,11.66
2019-03-03T15:05:34.713Z,11.63
2019-03-03T15:06:34.648Z,11.59
2019-03-03T15:08:27.444Z,11.57
2019-03-03T15:09:27.367Z,11.45
2019-03-03T15:11:20.189Z,11.48
2019-03-03T15:12:20.121Z,11.36
2019-03-03T15:14:12.897Z,11.30
2019-03-03T15:15:12.837Z,11.30
2019-03-03T15:17:06.434Z,11.24
2019-03-03T15:18:06.360Z,11.21
2019-03-03T15:19:59.209Z,11.17
2019-03-03T15:20:59.116Z,11.19
2019-03-03T15:22:52.001Z,11.20
2019-03-03T15:23:52.752Z,11.12
2019-03-03T15:25:44.673Z,11.03
2019-03-03T15:26:44.932Z,11.06
2019-03-03T15:28:37.334Z,11.06
2019-03-03T15:29:37.418Z,10.95
2019-03-03T15:31:37.486Z,10.94
2019-03-03T15:32:30.067Z,10.94
2019-03-03T15:34:23.002Z,10.91
2019-03-03T15:35:22.808Z,10.93
2019-03-03T15:37:15.684Z,10.90
2019-03-03T15:38:15.611Z,10.90
2019-03-03T15:40:10.468Z,10.98
2019-03-03T15:41:08.325Z,10.87
2019-03-03T15:43:01.116Z,10.84
2019-03-03T15:44:01.038Z,10.86
2019-03-03T15:45:53.855Z,10.81
2019-03-03T15:46:53.779Z,10.81
2019-03-03T15:48:47.630Z,10.90
2019-03-03T15:49:47.394Z,10.81
2019-03-03T15:51:40.252Z,10.80
2019-03-03T15:52:40.416Z,10.84
2019-03-03T15:54:33.185Z,10.81
2019-03-03T15:55:32.833Z,10.81
2019-03-03T15:57:24.763Z,10.69
2019-03-03T15:58:24.678Z,10.70
2019-03-03T16:00:17.543Z,10.75
2019-03-03T16:01:17.658Z,10.70
2019-03-03T16:03:11.975Z,10.78
2019-03-03T16:04:10.239Z,10.69
2019-03-03T16:06:03.106Z,10.73
2019-03-03T16:07:03.033Z,10.65
2019-03-03T16:08:56.072Z,10.78
2019-03-03T16:09:55.878Z,10.62
2019-03-03T16:11:49.004Z,10.69
2019-03-03T16:12:48.557Z,10.65
2019-03-03T16:14:41.721Z,10.70
2019-03-03T16:15:41.489Z,10.76
2019-03-03T16:17:34.892Z,10.69
2019-03-03T16:18:34.437Z,10.69
2019-03-03T16:20:27.215Z,10.58
2019-03-03T16:21:27.137Z,10.60
2019-03-03T16:23:19.902Z,10.62
2019-03-03T16:24:19.836Z,10.68
2019-03-03T16:26:15.531Z,10.62
2019-03-03T16:27:13.711Z,10.66
2019-03-03T16:29:06.831Z,10.57
2019-03-03T16:30:06.624Z,10.62
2019-03-03T16:31:59.426Z,10.55
2019-03-03T16:32:59.376Z,10.58
2019-03-03T16:34:52.175Z,10.62
2019-03-03T16:35:52.105Z,10.66
2019-03-03T16:37:44.863Z,10.68
2019-03-03T16:38:44.788Z,10.60
2019-03-03T16:40:39.863Z,10.60
2019-03-03T16:41:37.620Z,10.55
2019-03-03T16:43:30.390Z,10.60
2019-03-03T16:44:30.291Z,10.65
2019-03-03T16:46:23.041Z,10.58
2019-03-03T16:47:23.125Z,10.63
2019-03-03T16:49:15.791Z,10.49
2019-03-03T16:50:15.701Z,10.54
2019-03-03T16:52:08.491Z,10.47
2019-03-03T16:53:08.446Z,10.54
2019-03-03T16:55:01.765Z,10.46
2019-03-03T16:56:01.124Z,10.52
2019-03-03T16:57:53.949Z,10.60
2019-03-03T16:58:54.003Z,10.54
2019-03-03T17:00:46.741Z,10.49
2019-03-03T17:01:46.616Z,10.52
2019-03-03T17:03:39.542Z,10.54
2019-03-03T17:04:39.452Z,10.52
2019-03-03T17:06:32.457Z,10.49
2019-03-03T17:07:32.408Z,10.54
2019-03-03T17:09:25.238Z,10.58
2019-03-03T17:10:25.128Z,10.54
2019-03-03T17:12:18.330Z,10.63
2019-03-03T17:13:18.030Z,10.57
2019-03-03T17:15:11.863Z,10.46
2019-03-03T17:16:11.779Z,10.49
2019-03-03T17:18:04.607Z,10.49
2019-03-03T17:19:04.534Z,10.55
2019-03-03T17:20:57.415Z,10.52
2019-03-03T17:21:57.334Z,10.47
2019-03-03T17:23:50.393Z,10.58
2019-03-03T17:24:50.077Z,10.65
2019-03-03T17:26:42.802Z,10.60
2019-03-03T17:27:42.711Z,10.62
2019-03-03T17:29:35.619Z,10.55
2019-03-03T17:30:35.471Z,10.54
2019-03-03T17:32:28.395Z,10.58
2019-03-03T17:33:28.186Z,10.57
2019-03-03T17:35:21.163Z,10.55
2019-03-03T17:36:21.003Z,10.54
2019-03-03T17:38:13.900Z,10.63
2019-03-03T17:39:13.806Z,10.58
2019-03-03T17:41:06.596Z,10.58
2019-03-03T17:42:06.492Z,10.62
2019-03-03T17:44:00.356Z,10.62
2019-03-03T17:45:00.244Z,10.58
2019-03-03T17:46:53.035Z,10.60
2019-03-03T17:47:52.992Z,10.65
2019-03-03T17:49:46.611Z,10.58
2019-03-03T17:50:45.724Z,10.63
2019-03-03T17:52:38.871Z,10.65
2019-03-03T17:53:38.461Z,10.63
2019-03-03T17:55:31.232Z,10.62
2019-03-03T17:56:31.318Z,10.57
2019-03-03T17:58:24.063Z,10.60
2019-03-03T17:59:24.104Z,10.62
2019-03-03T18:01:17.082Z,10.69
2019-03-03T18:02:16.754Z,10.57
2019-03-03T18:04:09.751Z,10.57
2019-03-03T18:05:09.654Z,10.63
2019-03-03T18:07:02.562Z,10.60
2019-03-03T18:08:02.605Z,10.63
2019-03-03T18:09:55.837Z,10.58
2019-03-03T18:10:55.895Z,10.58
2019-03-03T18:12:48.209Z,10.63
2019-03-03T18:13:48.141Z,10.58
2019-03-03T18:15:41.022Z,10.57
2019-03-03T18:16:40.881Z,10.66
2019-03-03T18:18:33.773Z,10.65
2019-03-03T18:19:33.979Z,10.58
2019-03-03T18:21:26.702Z,10.66
2019-03-03T18:22:26.335Z,10.66
2019-03-03T18:24:19.094Z,10.62
2019-03-03T18:25:19.198Z,10.62
2019-03-03T18:27:11.806Z,10.62
2019-03-03T18:28:12.102Z,10.70
2019-03-03T18:30:04.741Z,10.66
2019-03-03T18:31:04.482Z,10.70
2019-03-03T18:32:57.558Z,10.58
2019-03-03T18:33:57.481Z,10.68
2019-03-03T18:35:50.109Z,10.68
2019-03-03T18:36:50.030Z,10.66
2019-03-03T18:38:42.999Z,10.69
2019-03-03T18:39:42.731Z,10.69
2019-03-03T18:41:35.593Z,10.69
2019-03-03T18:42:35.472Z,10.70
2019-03-03T18:44:28.298Z,10.65
2019-03-03T18:45:28.239Z,10.70
2019-03-03T18:47:21.420Z,10.78